Time;durP1;ratioP1;P1;durP2;ratioP2;P2;SDS_P1;SDS_P2;PMS_P1;PMS_P2;Temp;Humidity;BMP_temperature;BMP_pressure;BME280_temperature;BME280_humidity;BME280_pressure;Samples;Min_cycle;Max_cycle;Signal;HPM_P1;HPM_P2
2022/10/20 00:01:04;;;;;;;5.32;4.50;;;;;;;16.79;66.18;101589.53;5129950;27;20031;-83
2022/10/20 00:03:29;;;;;;;5.38;4.22;;;;;;;16.94;65.99;101595.47;5130103;27;20461;-82
2022/10/20 00:06:11;;;;;;;5.97;4.63;;;;;;;16.92;65.71;101586.59;5127872;27;20034;-83
2022/10/20 00:08:38;;;;;;;5.10;4.50;;;;;;;16.86;65.90;101595.16;5128342;27;20415;-83
2022/10/20 00:11:03;;;;;;;6.38;4.50;;;;;;;16.84;65.92;101594.19;5117037;27;20039;-83
2022/10/20 00:13:29;;;;;;;5.95;4.45;;;;;;;16.85;65.84;101590.72;5133586;27;20428;-83
2022/10/20 00:15:55;;;;;;;6.57;5.07;;;;;;;16.92;65.66;101604.16;5129795;27;20038;-83
2022/10/20 00:18:22;;;;;;;7.28;4.47;;;;;;;16.88;65.78;101603.13;5106757;27;20669;-83
2022/10/20 00:20:48;;;;;;;7.15;4.88;;;;;;;16.84;66.00;101596.81;5129579;27;20031;-83
2022/10/20 00:23:14;;;;;;;6.00;4.28;;;;;;;16.82;65.79;101592.31;5134568;27;20069;-83
2022/10/20 00:25:39;;;;;;;6.40;4.88;;;;;;;16.88;65.38;101601.38;5123316;27;20028;-83
2022/10/20 00:28:05;;;;;;;6.53;4.72;;;;;;;16.85;65.51;101603.00;5119038;27;20431;-83
2022/10/20 00:30:32;;;;;;;7.45;4.55;;;;;;;16.89;65.00;101602.31;5130216;27;20039;-83
2022/10/20 00:32:58;;;;;;;6.07;4.20;;;;;;;16.85;65.35;101605.66;5128561;27;20027;-83
2022/10/20 00:35:24;;;;;;;6.10;4.75;;;;;;;16.81;65.52;101609.00;5133116;27;20084;-83
2022/10/20 00:37:49;;;;;;;4.90;4.32;;;;;;;16.73;65.56;101592.81;5130090;27;20070;-83
2022/10/20 00:40:15;;;;;;;5.90;4.65;;;;;;;16.80;65.70;101604.50;5131106;27;20480;-83
2022/10/20 00:42:44;;;;;;;5.63;3.97;;;;;;;16.78;65.93;101596.53;5128576;27;20102;-83
2022/10/20 00:45:20;;;;;;;6.72;4.43;;;;;;;16.81;65.71;101603.72;5133029;27;20034;-83
2022/10/20 00:47:54;;;;;;;6.13;4.83;;;;;;;16.76;66.02;101600.84;5130976;27;20033;-83
2022/10/20 00:50:41;;;;;;;7.07;4.43;;;;;;;16.76;65.94;101611.38;5121794;27;20028;-83
2022/10/20 00:53:07;;;;;;;6.03;4.50;;;;;;;16.71;65.88;101598.84;5129190;27;20047;-82
2022/10/20 00:55:35;;;;;;;7.20;4.97;;;;;;;16.70;65.85;101590.06;5127995;27;20023;-82
2022/10/20 00:58:01;;;;;;;5.57;4.70;;;;;;;16.76;65.86;101606.09;5131506;27;20063;-83
2022/10/20 01:00:27;;;;;;;5.25;4.60;;;;;;;16.78;65.83;101612.34;5122904;27;20023;-83
2022/10/20 01:02:56;;;;;;;8.20;4.80;;;;;;;16.73;65.39;101605.09;5124070;27;20027;-83
2022/10/20 01:05:22;;;;;;;6.55;4.20;;;;;;;16.77;65.50;101610.56;5125346;27;20035;-83
2022/10/20 01:07:48;;;;;;;5.85;4.55;;;;;;;16.72;65.51;101611.19;5132425;27;20392;-83
2022/10/20 01:10:13;;;;;;;6.00;4.80;;;;;;;16.60;65.20;101596.66;5132078;27;20488;-83
2022/10/20 01:12:42;;;;;;;7.78;4.80;;;;;;;16.79;65.52;101635.28;5128889;27;20566;-83
2022/10/20 01:15:12;;;;;;;6.70;4.40;;;;;;;16.83;65.33;101631.06;5124271;27;20032;-83
2022/10/20 01:18:16;;;;;;;8.60;4.85;;;;;;;16.81;65.50;101635.38;5131064;27;20019;-83
2022/10/20 01:21:19;;;;;;;6.88;4.80;;;;;;;16.81;65.63;101631.00;5119970;27;20031;-83
2022/10/20 01:24:14;;;;;;;7.57;4.25;;;;;;;16.73;65.52;101632.38;5132196;27;20559;-83
2022/10/20 01:27:10;;;;;;;6.63;4.45;;;;;;;16.78;65.58;101637.84;5126324;27;20028;-83
2022/10/20 01:29:43;;;;;;;6.13;4.20;;;;;;;16.71;65.56;101633.16;5116382;27;20027;-84
2022/10/20 01:32:36;;;;;;;5.80;4.32;;;;;;;16.74;65.84;101639.44;5119136;27;20031;-83
2022/10/20 01:35:11;;;;;;;7.60;4.35;;;;;;;16.73;65.59;101649.94;5121294;27;20027;-83
2022/10/20 01:37:52;;;;;;;7.13;4.88;;;;;;;16.67;65.57;101640.91;5131393;27;20030;-83
2022/10/20 01:40:25;;;;;;;5.50;4.47;;;;;;;16.75;65.47;101638.63;5116003;27;20027;-83
2022/10/20 01:42:52;;;;;;;5.80;4.75;;;;;;;16.72;65.51;101630.59;5128699;27;20023;-83
2022/10/20 01:45:20;;;;;;;6.35;4.55;;;;;;;16.73;65.65;101645.56;5124170;27;20039;-83
2022/10/20 01:47:46;;;;;;;4.82;4.32;;;;;;;16.60;65.53;101615.13;5124892;27;20070;-83
2022/10/20 01:50:13;;;;;;;6.63;4.22;;;;;;;16.61;65.59;101623.91;5126086;27;20072;-83
2022/10/20 01:52:39;;;;;;;6.53;4.47;;;;;;;16.75;65.23;101643.00;5123935;27;20042;-83
2022/10/20 01:55:17;;;;;;;5.93;4.43;;;;;;;16.73;65.36;101637.66;5129229;27;20028;-83
2022/10/20 01:58:13;;;;;;;5.20;4.43;;;;;;;16.76;65.48;101650.94;5123178;27;20059;-82
2022/10/20 02:00:39;;;;;;;5.45;4.40;;;;;;;16.69;65.36;101644.50;5128661;27;20026;-82
2022/10/20 02:03:18;;;;;;;6.45;4.32;;;;;;;16.75;65.42;101653.53;5120369;27;20023;-83
2022/10/20 02:05:46;;;;;;;4.93;4.03;;;;;;;16.75;65.41;101650.91;5116815;27;20066;-83
2022/10/20 02:08:16;;;;;;;6.20;4.10;;;;;;;16.77;65.16;101654.50;5128419;27;20027;-83
2022/10/20 02:10:46;;;;;;;5.97;4.28;;;;;;;16.56;65.62;101633.38;5127019;27;20042;-82
2022/10/20 02:13:12;;;;;;;6.80;4.57;;;;;;;16.73;65.32;101657.84;5124106;27;20029;-83
2022/10/20 02:15:42;;;;;;;5.22;4.10;;;;;;;16.68;65.66;101653.28;5124606;27;20403;-84
2022/10/20 02:18:08;;;;;;;5.38;4.25;;;;;;;16.70;65.50;101669.19;5121923;27;20027;-83
2022/10/20 02:20:35;;;;;;;5.65;4.30;;;;;;;16.70;65.36;101661.25;5121536;27;20050;-83
2022/10/20 02:23:04;;;;;;;6.35;4.35;;;;;;;16.71;65.24;101663.06;5130010;27;20500;-83
2022/10/20 02:25:30;;;;;;;6.47;4.40;;;;;;;16.72;65.30;101661.31;5121798;27;20077;-83
2022/10/20 02:27:57;;;;;;;6.45;4.38;;;;;;;16.57;64.92;101633.44;5130478;27;20048;-83
2022/10/20 02:30:23;;;;;;;6.43;4.30;;;;;;;16.59;64.86;101644.06;5124535;27;20492;-83
2022/10/20 02:32:51;;;;;;;4.57;4.00;;;;;;;16.62;64.89;101660.03;5127807;27;20027;-82
2022/10/20 02:35:28;;;;;;;5.07;4.10;;;;;;;16.69;65.04;101680.53;5130545;27;20545;-83
2022/10/20 02:37:54;;;;;;;6.30;4.18;;;;;;;16.68;65.12;101677.00;5131064;27;20019;-82
2022/10/20 02:40:21;;;;;;;7.50;4.43;;;;;;;16.63;65.13;101672.34;5125376;27;20047;-83
2022/10/20 02:42:46;;;;;;;;;;;;;;;16.73;65.13;101679.84;5128283;27;20023;-83
2022/10/20 02:45:12;;;;;;;5.72;4.03;;;;;;;16.73;65.16;101687.75;5128033;27;19915;-83
2022/10/20 02:47:37;;;;;;;6.75;4.28;;;;;;;16.69;65.12;101694.63;5131167;27;20050;-83
2022/10/20 02:50:04;;;;;;;4.95;4.05;;;;;;;16.69;65.10;101697.25;5132180;27;20561;-82
2022/10/20 02:52:30;;;;;;;5.35;4.20;;;;;;;16.59;64.89;101681.88;5131677;27;20104;-82
2022/10/20 02:54:55;;;;;;;6.22;4.35;;;;;;;16.67;65.10;101693.66;5127813;27;20039;-83
2022/10/20 02:57:21;;;;;;;5.75;3.90;;;;;;;16.66;65.19;101699.78;5125528;27;20039;-83
2022/10/20 02:59:46;;;;;;;5.07;3.88;;;;;;;16.57;65.31;101677.38;5122595;27;20107;-83
2022/10/20 03:02:12;;;;;;;5.32;4.13;;;;;;;16.57;65.20;101677.38;5125161;27;20066;-83
2022/10/20 03:04:38;;;;;;;5.85;4.47;;;;;;;16.59;65.25;101684.50;5125653;27;20020;-83
2022/10/20 03:07:03;;;;;;;5.43;4.22;;;;;;;16.65;65.04;101690.06;5130383;27;20114;-82
2022/10/20 03:09:29;;;;;;;5.75;4.22;;;;;;;16.59;65.02;101683.59;5131032;27;20030;-83
2022/10/20 03:11:54;;;;;;;5.72;4.63;;;;;;;16.68;65.10;101713.03;5122048;27;20062;-82
2022/10/20 03:14:20;;;;;;;5.80;4.22;;;;;;;16.65;64.88;101718.16;5120822;27;20070;-82
2022/10/20 03:16:45;;;;;;;6.45;4.65;;;;;;;16.57;64.87;101699.34;5124431;27;20084;-82
2022/10/20 03:19:11;;;;;;;6.40;4.47;;;;;;;16.68;64.67;101716.56;5122523;27;20027;-83
2022/10/20 03:21:37;;;;;;;6.05;4.45;;;;;;;16.67;64.84;101725.31;5131215;27;20741;-83
2022/10/20 03:24:03;;;;;;;6.78;4.28;;;;;;;16.72;64.70;101720.25;5127493;27;20058;-83
2022/10/20 03:26:28;;;;;;;7.65;4.85;;;;;;;16.58;64.64;101698.53;5129265;27;20023;-83
2022/10/20 03:28:54;;;;;;;6.30;4.30;;;;;;;16.64;64.49;101711.09;5123005;27;20019;-83
2022/10/20 03:31:19;;;;;;;6.20;4.53;;;;;;;16.66;64.50;101723.53;5129520;27;20035;-83
2022/10/20 03:33:45;;;;;;;8.80;4.75;;;;;;;16.46;64.74;101682.16;5122769;27;20031;-83
2022/10/20 03:36:10;;;;;;;5.93;4.65;;;;;;;16.31;64.69;101663.03;5123519;27;20480;-83
2022/10/20 03:38:36;;;;;;;5.97;4.70;;;;;;;16.68;64.73;101724.50;5130293;28;20511;-83
2022/10/20 03:41:02;;;;;;;7.18;4.97;;;;;;;16.64;64.81;101706.72;5130089;27;20073;-83
2022/10/20 03:46:12;;;;;;;6.40;4.97;;;;;;;16.63;64.65;101712.81;5126665;27;20561;-81
2022/10/20 03:48:38;;;;;;;6.63;4.68;;;;;;;16.65;64.69;101726.06;5123599;27;20019;-82
2022/10/20 03:51:04;;;;;;;;;;;;;;;16.67;65.04;101719.13;5123443;27;20031;-82
2022/10/20 03:53:30;;;;;;;7.97;5.10;;;;;;;16.61;64.67;101718.88;5122552;27;19915;-83
2022/10/20 03:55:55;;;;;;;;;;;;;;;16.70;64.77;101729.84;5128525;27;20538;-82
2022/10/20 03:58:21;;;;;;;7.03;4.88;;;;;;;16.64;64.65;101721.66;5114789;27;19915;-82
2022/10/20 04:00:47;;;;;;;6.25;4.63;;;;;;;16.52;64.94;101718.47;5128085;27;20666;-82
2022/10/20 04:03:13;;;;;;;7.00;5.22;;;;;;;16.53;65.02;101723.81;5127690;27;20027;-83
2022/10/20 04:05:39;;;;;;;6.93;5.20;;;;;;;16.62;64.90;101725.97;5119451;27;20030;-83
2022/10/20 04:08:04;;;;;;;6.55;4.82;;;;;;;16.35;64.97;101694.88;5115939;27;20125;-82
2022/10/20 04:10:30;;;;;;;5.80;4.93;;;;;;;16.57;64.56;101720.44;5128870;27;20110;-82
2022/10/20 04:13:02;;;;;;;6.35;5.25;;;;;;;16.59;64.93;101742.53;5128994;27;20046;-82
2022/10/20 04:15:28;;;;;;;7.65;5.38;;;;;;;16.33;64.79;101693.91;5106061;28;20412;-82
2022/10/20 04:17:54;;;;;;;7.15;4.82;;;;;;;16.61;64.69;101743.50;5116606;27;20106;-81
2022/10/20 04:20:19;;;;;;;8.23;5.40;;;;;;;16.46;64.77;101712.06;5127416;27;20051;-81
2022/10/20 04:22:45;;;;;;;6.18;5.05;;;;;;;16.62;64.66;101739.16;5126779;27;20026;-81
2022/10/20 04:25:11;;;;;;;7.82;5.18;;;;;;;16.57;64.65;101738.91;5126122;27;20030;-82
2022/10/20 04:27:38;;;;;;;8.32;5.53;;;;;;;16.61;64.25;101750.50;5124345;27;20034;-81
2022/10/20 04:30:04;;;;;;;9.60;6.07;;;;;;;16.57;64.37;101754.72;5129357;27;20039;-81
2022/10/20 04:32:29;;;;;;;;;;;;;;;16.64;64.36;101761.22;5131151;27;20095;-81
2022/10/20 04:34:55;;;;;;;7.38;5.72;;;;;;;16.60;64.55;101767.19;5124650;27;19997;-81
2022/10/20 04:37:21;;;;;;;8.20;6.00;;;;;;;16.60;64.48;101764.53;5120348;27;20023;-81
2022/10/20 04:39:46;;;;;;;7.55;5.45;;;;;;;16.42;64.43;101743.50;5133952;27;20038;-82
2022/10/20 04:42:12;;;;;;;9.27;5.60;;;;;;;16.57;64.50;101767.91;5131047;27;20098;-83
2022/10/20 04:44:37;;;;;;;7.38;5.63;;;;;;;16.49;64.70;101764.94;5127317;27;20385;-83
2022/10/20 04:47:03;;;;;;;8.63;6.25;;;;;;;16.47;64.74;101763.09;5123972;27;20031;-81
2022/10/20 04:49:29;;;;;;;9.52;6.07;;;;;;;16.48;64.61;101770.16;5133804;27;20031;-83
2022/10/20 04:51:54;;;;;;;7.38;5.85;;;;;;;16.56;64.68;101783.69;5130210;27;20051;-83
2022/10/20 04:54:20;;;;;;;6.82;5.53;;;;;;;16.55;64.59;101792.41;5116616;27;20024;-83
2022/10/20 04:56:45;;;;;;;7.80;5.63;;;;;;;16.55;64.53;101795.06;5125276;27;20027;-83
2022/10/20 04:59:11;;;;;;;7.70;6.32;;;;;;;16.47;64.47;101781.53;5122294;27;20034;-82
2022/10/20 05:01:36;;;;;;;7.30;6.10;;;;;;;16.45;64.42;101778.81;5123021;27;20488;-82
2022/10/20 05:04:02;;;;;;;10.82;6.22;;;;;;;16.56;64.71;101797.78;5123301;27;20062;-82
2022/10/20 05:06:29;;;;;;;9.45;6.43;;;;;;;16.56;64.79;101804.78;5132732;27;20055;-83
2022/10/20 05:08:57;;;;;;;10.23;6.18;;;;;;;16.54;64.81;101798.53;5128296;27;20130;-82
2022/10/20 05:11:25;;;;;;;11.18;6.82;;;;;;;16.60;64.47;101807.63;5131934;27;20034;-84
2022/10/20 05:13:50;;;;;;;10.02;6.65;;;;;;;16.52;64.72;101816.03;5129966;27;20023;-84
2022/10/20 05:16:16;;;;;;;8.27;6.72;;;;;;;16.45;64.94;101820.13;5120157;27;20036;-84
2022/10/20 05:18:43;;;;;;;8.27;6.63;;;;;;;16.54;64.96;101832.81;5126360;27;20508;-84
2022/10/20 05:21:11;;;;;;;7.68;6.20;;;;;;;16.40;64.92;101817.28;5129391;27;20049;-83
2022/10/20 05:23:38;;;;;;;10.73;7.20;;;;;;;16.50;64.60;101842.31;5121624;27;20020;-84
2022/10/20 05:26:06;;;;;;;9.82;6.88;;;;;;;16.53;64.80;101855.66;5105309;27;20167;-84
2022/10/20 05:28:31;;;;;;;10.52;6.75;;;;;;;16.53;64.90;101860.94;5106724;28;20020;-84
2022/10/20 05:31:05;;;;;;;11.25;7.20;;;;;;;16.53;64.55;101863.56;5118206;27;20064;-84
2022/10/20 05:33:31;;;;;;;12.02;7.22;;;;;;;16.50;64.91;101871.31;5125973;27;20035;-83
2022/10/20 05:35:56;;;;;;;12.18;7.70;;;;;;;16.50;64.49;101881.88;5132301;27;20031;-85
2022/10/20 05:38:22;;;;;;;9.55;6.93;;;;;;;16.43;64.42;101871.88;5130774;27;20088;-85
2022/10/20 05:40:48;;;;;;;13.45;7.55;;;;;;;16.45;64.49;101873.75;5132314;27;20090;-84
2022/10/20 05:43:13;;;;;;;9.20;6.30;;;;;;;16.44;64.68;101876.28;5119590;27;20025;-84
2022/10/20 05:45:39;;;;;;;10.13;7.10;;;;;;;16.51;64.62;101891.59;5117145;27;20037;-87
2022/10/20 05:48:05;;;;;;;10.98;7.43;;;;;;;16.43;64.16;101895.59;5119852;27;20039;-85
2022/10/20 05:50:31;;;;;;;12.18;7.63;;;;;;;16.41;64.17;101891.97;5122405;27;20030;-88
2022/10/20 05:52:57;;;;;;;11.25;7.50;;;;;;;16.34;64.14;101881.94;5128054;27;20043;-87
2022/10/20 05:55:23;;;;;;;12.57;7.43;;;;;;;16.48;64.10;101909.88;5126896;27;20117;-85
2022/10/20 05:57:50;;;;;;;9.77;6.57;;;;;;;16.44;64.30;101902.66;5108896;27;20063;-84
2022/10/20 06:00:18;;;;;;;11.07;7.28;;;;;;;16.33;64.36;101895.97;5116666;27;20027;-83
2022/10/20 06:02:44;;;;;;;11.32;7.15;;;;;;;16.29;64.70;101902.81;5123706;27;20027;-84
2022/10/20 06:05:18;;;;;;;11.30;7.07;;;;;;;16.08;64.63;101886.84;5120062;27;20019;-86
2022/10/20 06:07:47;;;;;;;9.85;6.93;;;;;;;16.37;64.27;101926.94;5118992;27;20546;-87
2022/10/20 06:10:13;;;;;;;9.73;6.85;;;;;;;16.06;64.19;101883.25;5130885;27;20530;-86
2022/10/20 06:12:39;;;;;;;10.02;7.03;;;;;;;15.99;64.56;101862.69;5129155;27;20564;-86
2022/10/20 06:15:05;;;;;;;10.55;6.80;;;;;;;16.07;65.00;101875.41;5120520;27;20146;-86
2022/10/20 06:17:31;;;;;;;10.15;6.80;;;;;;;16.46;64.82;101940.56;5124127;27;20088;-86
2022/10/20 06:19:56;;;;;;;9.25;6.53;;;;;;;16.39;65.04;101936.72;5128468;27;20114;-86
2022/10/20 06:25:22;;;;;;;9.45;6.82;;;;;;;16.02;65.11;101895.38;5113887;27;20031;-85
2022/10/20 06:27:47;;;;;;;9.65;6.75;;;;;;;16.46;64.97;101959.00;5124137;27;20083;-84
2022/10/20 06:30:16;;;;;;;8.80;6.78;;;;;;;16.42;65.28;101968.50;5105012;27;20723;-85
2022/10/20 06:32:41;;;;;;;9.07;6.97;;;;;;;16.43;65.06;101972.94;5132858;27;20031;-86
2022/10/20 06:35:07;;;;;;;10.48;6.43;;;;;;;16.34;65.14;101956.69;5131243;27;20030;-84
2022/10/20 06:37:33;;;;;;;8.88;6.35;;;;;;;16.28;65.00;101949.38;5130719;27;20504;-84
2022/10/20 06:39:58;;;;;;;8.60;6.45;;;;;;;16.22;65.03;101942.91;5129158;27;20107;-85
2022/10/20 06:42:24;;;;;;;8.00;6.45;;;;;;;15.91;65.08;101898.28;5130060;27;20059;-85
2022/10/20 06:44:49;;;;;;;8.80;6.50;;;;;;;16.01;65.05;101911.09;5130730;27;20156;-84
2022/10/20 06:47:15;;;;;;;8.23;5.95;;;;;;;16.37;65.36;101979.66;5116204;27;20062;-86
2022/10/20 06:49:41;;;;;;;7.80;6.18;;;;;;;15.92;64.79;101892.19;5113301;27;20031;-83
2022/10/20 06:52:06;;;;;;;8.02;6.25;;;;;;;16.38;65.13;101974.47;5123078;27;20488;-84
2022/10/20 06:54:33;;;;;;;9.40;6.25;;;;;;;16.20;65.34;101961.25;5104675;27;20030;-87
2022/10/20 06:56:58;;;;;;;8.77;6.18;;;;;;;16.14;65.17;101953.03;5117869;27;20039;-85
2022/10/20 06:59:27;;;;;;;9.02;5.72;;;;;;;16.02;64.72;101920.78;5125541;27;20057;-84
2022/10/20 07:01:52;;;;;;;9.27;5.80;;;;;;;15.89;65.11;101911.38;5131598;27;20515;-87
2022/10/20 07:04:18;;;;;;;10.05;5.90;;;;;;;16.08;65.24;101976.44;5105417;28;20081;-86
2022/10/20 07:06:45;;;;;;;9.82;5.80;;;;;;;16.13;64.72;101980.25;5127373;27;20433;-83
2022/10/20 07:09:16;;;;;;;9.77;5.70;;;;;;;16.13;65.78;101976.69;5124003;27;20099;-84
2022/10/20 07:11:42;;;;;;;8.30;5.60;;;;;;;15.63;65.05;101931.97;5114897;27;20027;-84
2022/10/20 07:14:09;;;;;;;7.03;5.28;;;;;;;15.82;64.35;101972.47;5126352;27;20400;-86
2022/10/20 07:16:35;;;;;;;9.07;5.07;;;;;;;15.91;64.23;101957.13;5105101;28;20024;-86
2022/10/20 07:19:02;;;;;;;8.80;5.03;;;;;;;15.75;64.57;101970.38;5117301;28;20036;-85
2022/10/20 07:21:30;;;;;;;10.13;5.47;;;;;;;16.02;64.09;101984.03;5128276;27;20049;-84
2022/10/20 07:23:55;;;;;;;7.07;5.30;;;;;;;16.02;64.38;101987.59;5132006;27;20033;-84
2022/10/20 07:26:23;;;;;;;9.35;4.97;;;;;;;15.90;64.03;101975.53;5132117;27;20102;-84
2022/10/20 07:28:51;;;;;;;7.38;4.68;;;;;;;15.78;64.40;101988.94;5128920;28;20032;-84
2022/10/20 07:31:21;;;;;;;7.68;4.70;;;;;;;15.86;63.97;101983.25;5129666;28;20469;-86
2022/10/20 07:33:46;;;;;;;7.05;4.07;;;;;;;15.77;64.03;101995.03;5123866;28;20024;-86
2022/10/20 07:36:17;;;;;;;7.93;4.43;;;;;;;15.61;64.55;101967.84;5115083;28;20030;-86
2022/10/20 07:38:43;;;;;;;8.55;4.57;;;;;;;15.88;64.63;102010.59;5122621;28;20024;-87
2022/10/20 07:41:08;;;;;;;5.93;4.10;;;;;;;15.55;64.13;101953.47;5112049;28;20029;-87
2022/10/20 07:43:34;;;;;;;5.97;3.92;;;;;;;15.94;64.27;101995.91;5130069;27;20019;-86
2022/10/20 07:46:00;;;;;;;6.10;4.20;;;;;;;15.81;64.37;102002.28;5125909;27;20119;-87
2022/10/20 07:48:26;;;;;;;6.53;4.18;;;;;;;15.76;63.45;101987.97;5105058;28;20111;-86
2022/10/20 07:50:52;;;;;;;6.03;4.00;;;;;;;15.81;64.12;102019.00;5110965;28;20035;-86
2022/10/20 07:53:17;;;;;;;5.35;3.47;;;;;;;16.06;63.95;102022.91;5127698;28;20051;-86
2022/10/20 07:55:44;;;;;;;6.55;3.90;;;;;;;15.75;63.54;101992.34;5107665;28;20497;-85
2022/10/20 07:58:11;;;;;;;7.50;3.55;;;;;;;15.83;64.07;101998.00;5120021;28;20055;-86
2022/10/20 08:00:36;;;;;;;;;;;;;;;16.05;64.16;102023.75;5116938;28;20027;-86
2022/10/20 08:03:02;;;;;;;5.20;3.97;;;;;;;15.78;63.78;102010.03;5093980;27;19922;-86
2022/10/20 08:05:28;;;;;;;8.02;4.00;;;;;;;15.96;64.27;101997.81;5130266;27;20449;-86
2022/10/20 08:07:54;;;;;;;;;;;;;;;16.03;63.87;102022.75;5102313;28;20036;-86
2022/10/20 08:10:19;;;;;;;5.22;3.30;;;;;;;15.85;63.64;102012.13;5131577;27;19948;-86
2022/10/20 08:12:45;;;;;;;5.43;3.35;;;;;;;15.99;64.02;102037.50;5129763;27;20027;-87
2022/10/20 08:15:10;;;;;;;5.95;3.45;;;;;;;16.07;63.55;102022.97;5131904;27;20031;-87
2022/10/20 08:17:36;;;;;;;6.72;2.78;;;;;;;15.68;63.58;101972.66;5126299;27;20511;-85
2022/10/20 08:20:03;;;;;;;4.38;2.80;;;;;;;16.12;62.92;102039.03;5134440;27;20063;-87
2022/10/20 08:22:28;;;;;;;5.53;2.90;;;;;;;15.68;63.34;101987.53;5109073;28;20024;-86
2022/10/20 08:24:54;;;;;;;3.75;2.88;;;;;;;15.99;63.71;102032.22;5115240;27;20035;-86
2022/10/20 08:27:20;;;;;;;3.90;2.70;;;;;;;15.91;62.68;102028.28;5133634;27;20019;-86
2022/10/20 08:29:45;;;;;;;4.28;2.58;;;;;;;15.46;62.74;101975.84;5133029;27;20389;-85
2022/10/20 08:32:13;;;;;;;6.38;2.60;;;;;;;15.73;63.26;101990.47;5132051;27;20083;-87
2022/10/20 08:34:39;;;;;;;4.85;2.50;;;;;;;16.22;63.12;102043.94;5133772;27;20110;-88
2022/10/20 08:37:05;;;;;;;5.95;2.63;;;;;;;16.20;62.68;102064.06;5132850;27;20011;-87
2022/10/20 08:39:30;;;;;;;5.57;2.53;;;;;;;16.03;62.88;102028.91;5131077;27;20060;-88
2022/10/20 08:41:56;;;;;;;5.43;2.85;;;;;;;15.95;63.32;102011.81;5132290;27;20527;-87
2022/10/20 08:44:28;;;;;;;4.60;2.70;;;;;;;16.10;63.40;102047.69;5111600;28;20035;-87
2022/10/20 08:46:54;;;;;;;4.63;2.58;;;;;;;16.18;63.03;102059.53;5123574;27;20500;-86
2022/10/20 08:49:26;;;;;;;6.30;2.70;;;;;;;16.20;63.78;102076.34;5133929;27;20027;-85
2022/10/20 08:51:52;;;;;;;5.22;2.58;;;;;;;16.26;63.61;102082.81;5128185;27;20031;-88
2022/10/20 08:54:18;;;;;;;3.20;2.33;;;;;;;16.05;63.17;102029.00;5112965;28;20448;-86
2022/10/20 08:56:44;;;;;;;4.60;2.33;;;;;;;15.94;62.25;102041.63;5117883;27;20416;-87
2022/10/20 08:59:33;;;;;;;4.75;2.42;;;;;;;16.13;63.85;102071.53;5113378;27;20024;-87
2022/10/20 09:01:58;;;;;;;4.82;2.20;;;;;;;16.25;63.28;102091.53;5112924;27;20050;-87
2022/10/20 09:04:40;;;;;;;3.58;2.20;;;;;;;16.24;63.44;102078.31;5124260;27;20495;-87
2022/10/20 09:07:32;;;;;;;3.95;2.30;;;;;;;16.14;63.51;102068.09;5123656;27;20031;-87
2022/10/20 09:10:17;;;;;;;4.63;2.35;;;;;;;16.37;63.95;102116.75;5133034;27;20035;-87
2022/10/20 09:12:45;;;;;;;2.72;2.38;;;;;;;16.22;63.80;102088.75;5122251;27;20035;-88
2022/10/20 09:15:12;;;;;;;3.28;2.22;;;;;;;16.31;64.10;102112.06;5114423;27;20492;-88
2022/10/20 09:17:46;;;;;;;3.85;2.50;;;;;;;16.32;63.99;102102.41;5129956;27;20035;-88
2022/10/20 09:20:21;;;;;;;7.45;2.60;;;;;;;16.25;64.26;102096.81;5130573;27;20039;-88
2022/10/20 09:22:47;;;;;;;3.53;2.50;;;;;;;16.37;63.95;102122.03;5134281;27;20122;-87
2022/10/20 09:25:18;;;;;;;4.28;2.38;;;;;;;16.21;62.94;102096.56;5123023;27;20453;-87
2022/10/20 09:27:45;;;;;;;3.15;1.92;;;;;;;16.33;62.52;102114.78;5122058;27;20025;-86
2022/10/20 09:30:14;;;;;;;;;;;;;;;16.36;63.73;102112.28;5127467;27;20425;-88
2022/10/20 09:32:39;;;;;;;6.35;2.20;;;;;;;16.34;63.78;102117.50;5126669;27;20003;-88
2022/10/20 09:35:24;;;;;;;4.03;2.30;;;;;;;16.46;63.79;102117.22;5128932;27;20023;-87
2022/10/20 09:37:57;;;;;;;3.60;2.25;;;;;;;16.45;63.82;102118.97;5122166;27;20495;-89
2022/10/20 09:40:25;;;;;;;3.95;2.20;;;;;;;16.46;63.75;102118.13;5125665;27;20034;-88
2022/10/20 09:43:18;;;;;;;3.15;2.25;;;;;;;16.46;63.88;102118.13;5124691;27;20023;-88
2022/10/20 09:45:51;;;;;;;3.47;2.00;;;;;;;16.41;63.24;102131.91;5110717;27;20035;-90
2022/10/20 09:48:26;;;;;;;4.90;2.40;;;;;;;16.37;62.74;102132.56;5126459;27;20027;-88
2022/10/20 09:50:57;;;;;;;4.03;2.20;;;;;;;16.24;63.42;102089.75;5105411;27;20168;-89
2022/10/20 09:53:27;;;;;;;4.32;2.00;;;;;;;16.36;63.82;102131.69;5114574;27;20042;-89
2022/10/20 09:55:53;;;;;;;3.60;1.92;;;;;;;16.16;63.46;102091.06;5111496;27;20023;-87
2022/10/20 09:58:30;;;;;;;3.67;2.13;;;;;;;16.15;63.86;102084.00;5122591;27;20466;-87
2022/10/20 10:00:59;;;;;;;3.40;1.90;;;;;;;16.32;63.39;102105.03;5129388;27;20491;-87
2022/10/20 10:03:25;;;;;;;3.85;1.90;;;;;;;16.52;63.66;102133.34;5129440;27;20068;-88
2022/10/20 10:06:00;;;;;;;2.75;2.00;;;;;;;16.40;63.57;102106.34;5118342;27;20031;-87
2022/10/20 10:08:29;;;;;;;2.80;1.80;;;;;;;16.22;63.32;102087.88;5110301;27;20058;-87
2022/10/20 10:11:11;;;;;;;5.28;1.83;;;;;;;16.18;63.30;102092.06;5109763;27;20023;-87
2022/10/20 10:13:42;;;;;;;4.07;1.95;;;;;;;16.43;63.44;102123.25;5121207;27;20038;-91
2022/10/20 10:16:10;;;;;;;4.82;1.70;;;;;;;16.23;63.55;102085.31;5122469;27;20031;-86
2022/10/20 10:18:37;;;;;;;3.83;2.10;;;;;;;16.51;63.28;102130.63;5106770;27;20067;-89
2022/10/20 10:21:09;;;;;;;4.95;2.10;;;;;;;16.51;63.59;102142.13;5129446;27;20131;-87
2022/10/20 10:23:48;;;;;;;2.65;1.95;;;;;;;16.44;62.84;102121.50;5110342;28;20571;-86
2022/10/20 10:26:38;;;;;;;5.88;2.08;;;;;;;16.59;63.28;102143.38;5126746;27;20027;-88
2022/10/20 10:29:04;;;;;;;7.63;2.13;;;;;;;16.53;63.17;102140.47;5137988;27;20091;-88
2022/10/20 10:31:33;;;;;;;3.10;2.00;;;;;;;16.41;63.47;102110.81;5127103;27;20039;-87
2022/10/20 10:34:07;;;;;;;2.35;1.83;;;;;;;16.53;63.61;102140.47;5110066;27;20096;-87
2022/10/20 10:36:35;;;;;;;4.68;2.10;;;;;;;16.41;63.41;102102.91;5118916;27;20039;-88
2022/10/20 10:39:03;;;;;;;2.13;1.88;;;;;;;16.60;63.54;102128.50;5128252;27;20019;-87
2022/10/20 10:41:47;;;;;;;3.80;2.00;;;;;;;16.62;63.29;102124.19;5125149;27;20052;-86
2022/10/20 10:44:31;;;;;;;4.50;1.88;;;;;;;16.57;63.13;102126.56;5131309;27;20034;-86
2022/10/20 10:47:02;;;;;;;3.15;1.70;;;;;;;16.62;62.84;102130.38;5117352;27;20034;-86
2022/10/20 10:49:42;;;;;;;2.70;2.30;;;;;;;16.66;63.03;102116.50;5123540;27;20027;-86
2022/10/20 10:52:49;;;;;;;2.22;1.80;;;;;;;16.65;63.41;102125.25;5122056;27;20045;-85
2022/10/20 10:55:22;;;;;;;3.22;1.98;;;;;;;16.54;63.40;102118.53;5069245;28;20094;-87
2022/10/20 10:58:14;;;;;;;4.07;1.98;;;;;;;16.38;64.00;102089.53;5116631;27;20397;-87
2022/10/20 11:01:16;;;;;;;2.53;1.77;;;;;;;16.51;63.69;102115.75;5120915;27;20126;-88
2022/10/20 11:03:52;;;;;;;4.63;1.77;;;;;;;16.55;64.04;102127.31;5128849;27;20032;-86
2022/10/20 11:06:38;;;;;;;4.25;1.90;;;;;;;16.58;63.59;102124.88;5131273;27;20393;-87
2022/10/20 11:09:22;;;;;;;4.22;2.03;;;;;;;16.63;63.69;102132.16;5127675;27;20484;-86
2022/10/20 11:12:03;;;;;;;4.05;2.10;;;;;;;16.64;63.45;102134.00;5132093;27;20507;-87
2022/10/20 11:14:48;;;;;;;5.00;1.90;;;;;;;16.59;63.79;102130.19;5113906;27;20023;-86
2022/10/20 11:17:23;;;;;;;2.83;1.85;;;;;;;16.64;63.73;102133.09;5132219;28;20485;-87
2022/10/20 11:19:59;;;;;;;2.10;1.90;;;;;;;16.55;63.82;102114.16;5118833;28;20112;-87
2022/10/20 11:23:02;;;;;;;2.00;1.80;;;;;;;16.60;63.69;102139.03;5128329;28;20019;-89
2022/10/20 11:25:56;;;;;;;2.85;1.67;;;;;;;16.63;63.70;102132.16;5128352;28;20035;-87
2022/10/20 11:28:34;;;;;;;2.70;1.92;;;;;;;16.65;63.86;102135.78;5077777;28;20130;-86
2022/10/20 11:30:59;;;;;;;4.15;1.60;;;;;;;16.57;63.70;102108.13;5124460;28;20031;-88
2022/10/20 11:33:40;;;;;;;3.75;1.92;;;;;;;16.61;63.77;102120.63;5126234;28;20586;-87
2022/10/20 11:36:18;;;;;;;3.65;2.05;;;;;;;16.72;63.57;102120.28;5129665;28;20027;-87
2022/10/20 11:38:49;;;;;;;2.60;2.00;;;;;;;16.45;63.88;102084.69;5133235;27;20499;-86
2022/10/20 11:41:36;;;;;;;2.67;1.75;;;;;;;16.67;64.04;102128.84;5104254;27;20409;-86
2022/10/20 11:44:06;;;;;;;2.70;1.73;;;;;;;16.56;64.09;102103.69;5135285;27;20034;-86